createdAt,value
2023-02-02T00:00:01.376Z,72.70
2023-02-02T00:02:59.185Z,73.10
2023-02-02T00:05:56.894Z,72.70
2023-02-02T00:08:57.287Z,73.00
2023-02-02T00:11:55.302Z,74.10
2023-02-02T00:14:53.085Z,73.00
2023-02-02T00:17:50.919Z,73.00
2023-02-02T00:20:50.576Z,72.60
2023-02-02T00:23:48.404Z,72.40
2023-02-02T00:26:50.085Z,72.40
2023-02-02T00:29:47.779Z,72.20
2023-02-02T00:32:48.775Z,72.00
2023-02-02T00:35:46.388Z,71.90
2023-02-02T00:38:44.590Z,71.20
2023-02-02T00:41:42.479Z,71.00
2023-02-02T00:44:55.541Z,70.40
2023-02-02T00:47:53.072Z,70.20
2023-02-02T00:50:50.788Z,70.70
2023-02-02T00:53:48.433Z,70.80
2023-02-02T00:56:46.201Z,71.10
2023-02-02T00:59:44.208Z,71.30
2023-02-02T01:02:42.620Z,71.40
2023-02-02T01:05:40.729Z,71.30
2023-02-02T01:08:38.730Z,70.90
2023-02-02T01:11:36.384Z,71.10
2023-02-02T01:14:34.128Z,71.40
2023-02-02T01:17:31.971Z,71.40
2023-02-02T01:20:29.990Z,70.80
2023-02-02T01:23:28.153Z,71.10
2023-02-02T01:26:26.086Z,71.70
2023-02-02T01:29:24.074Z,71.40
2023-02-02T01:32:22.365Z,71.40
2023-02-02T01:35:20.431Z,71.20
2023-02-02T01:38:18.485Z,70.80
2023-02-02T01:41:20.008Z,70.60
2023-02-02T01:44:48.510Z,70.10
2023-02-02T01:47:52.983Z,70.00
2023-02-02T01:50:54.228Z,70.20
2023-02-02T01:53:55.292Z,70.50
2023-02-02T01:57:05.718Z,70.90
2023-02-02T02:00:08.459Z,70.50
2023-02-02T02:03:12.447Z,70.20
2023-02-02T02:06:13.855Z,70.60
2023-02-02T02:09:11.866Z,70.60
2023-02-02T02:12:15.763Z,70.90
2023-02-02T02:15:28.891Z,71.00
2023-02-02T02:18:41.416Z,71.70
2023-02-02T02:22:10.803Z,71.90
2023-02-02T02:25:51.356Z,73.10
2023-02-02T02:29:13.279Z,73.80
2023-02-02T02:32:28.754Z,72.80
2023-02-02T02:35:49.601Z,72.30
2023-02-02T02:39:09.040Z,72.20
2023-02-02T02:42:13.183Z,71.60
2023-02-02T02:45:15.285Z,71.80
2023-02-02T02:48:13.054Z,71.70
2023-02-02T02:51:45.838Z,72.40
2023-02-02T02:54:50.284Z,72.00
2023-02-02T02:58:05.259Z,72.40
2023-02-02T03:01:15.405Z,72.40
2023-02-02T03:04:24.016Z,71.90
2023-02-02T03:07:28.404Z,71.70
2023-02-02T03:10:30.151Z,71.40
2023-02-02T03:13:28.838Z,71.40
2023-02-02T03:16:26.528Z,71.00
2023-02-02T03:19:24.474Z,70.60
2023-02-02T03:22:22.130Z,69.50
2023-02-02T03:25:19.909Z,70.70
2023-02-02T03:28:18.764Z,71.30
2023-02-02T03:31:19.442Z,71.60
2023-02-02T03:34:17.156Z,71.90
2023-02-02T03:37:14.919Z,71.40
2023-02-02T03:40:12.771Z,71.50
2023-02-02T03:43:10.643Z,72.60
2023-02-02T03:46:08.763Z,74.20
2023-02-02T03:49:06.605Z,72.30
2023-02-02T03:52:05.430Z,71.90
2023-02-02T03:55:03.241Z,71.60
2023-02-02T03:58:00.907Z,70.90
2023-02-02T04:01:07.788Z,70.80
2023-02-02T04:04:05.474Z,71.00
2023-02-02T04:07:03.316Z,71.60
2023-02-02T04:10:00.960Z,71.00
2023-02-02T04:12:58.747Z,70.80
2023-02-02T04:15:59.276Z,70.30
2023-02-02T04:18:57.308Z,70.30
2023-02-02T04:21:55.014Z,69.90
2023-02-02T04:24:52.856Z,70.00
2023-02-02T04:27:50.573Z,69.70
2023-02-02T04:30:48.362Z,69.10
2023-02-02T04:33:46.106Z,68.60
2023-02-02T04:36:44.243Z,68.80
2023-02-02T04:39:42.039Z,70.50
2023-02-02T04:42:39.786Z,69.80
2023-02-02T04:45:37.552Z,68.90
2023-02-02T04:48:35.371Z,67.90
2023-02-02T04:51:35.358Z,67.70
2023-02-02T04:54:35.042Z,67.50
2023-02-02T04:57:32.688Z,67.60
2023-02-02T05:00:30.781Z,66.00
2023-02-02T05:03:28.507Z,66.20
2023-02-02T05:06:26.557Z,65.80
2023-02-02T05:09:24.398Z,65.30
2023-02-02T05:12:22.241Z,65.20
2023-02-02T05:15:21.871Z,65.10
2023-02-02T05:18:19.937Z,65.60
2023-02-02T05:21:17.695Z,66.20
2023-02-02T05:24:15.543Z,66.20
2023-02-02T05:27:13.403Z,65.30
2023-02-02T05:30:13.672Z,66.30
2023-02-02T05:33:11.888Z,66.40
2023-02-02T05:36:09.883Z,66.50
2023-02-02T05:39:07.619Z,67.20
2023-02-02T05:42:05.531Z,68.00
2023-02-02T05:45:03.480Z,67.30
2023-02-02T05:48:01.331Z,66.80
2023-02-02T05:51:15.513Z,66.50
2023-02-02T05:54:13.686Z,65.80
2023-02-02T05:57:11.436Z,65.60
2023-02-02T06:00:10.009Z,65.10
2023-02-02T06:03:07.818Z,65.00
2023-02-02T06:06:07.006Z,65.30
2023-02-02T06:09:06.243Z,65.20
2023-02-02T06:12:04.379Z,64.70
2023-02-02T06:15:02.458Z,64.70
2023-02-02T06:18:00.887Z,64.90
2023-02-02T06:20:59.523Z,65.40
2023-02-02T06:23:57.888Z,65.90
2023-02-02T06:26:55.700Z,65.50
2023-02-02T06:29:53.527Z,64.50
2023-02-02T06:32:51.375Z,63.70
2023-02-02T06:35:49.172Z,63.50
2023-02-02T06:38:50.893Z,63.60
2023-02-02T06:41:48.870Z,63.40
2023-02-02T06:44:46.563Z,62.20
2023-02-02T06:47:44.627Z,61.40
2023-02-02T06:50:42.381Z,60.10
2023-02-02T06:53:40.150Z,59.50
2023-02-02T06:56:37.801Z,59.90
2023-02-02T06:59:35.626Z,59.80
2023-02-02T07:02:33.460Z,59.40
2023-02-02T07:05:31.609Z,61.80
2023-02-02T07:08:29.447Z,61.90
2023-02-02T07:11:27.905Z,61.60
2023-02-02T07:14:25.804Z,61.30
2023-02-02T07:17:23.596Z,61.60
2023-02-02T07:20:21.399Z,61.70
2023-02-02T07:23:19.197Z,63.10
2023-02-02T07:26:19.028Z,61.80
2023-02-02T07:29:16.893Z,63.20
2023-02-02T07:32:14.648Z,62.90
2023-02-02T07:35:12.436Z,61.60
2023-02-02T07:38:10.095Z,60.80
2023-02-02T07:41:07.917Z,60.50
2023-02-02T07:44:06.408Z,60.40
2023-02-02T07:47:04.189Z,60.00
2023-02-02T07:50:01.941Z,58.20
2023-02-02T07:53:01.331Z,57.20
2023-02-02T07:56:15.679Z,56.90
2023-02-02T07:59:13.538Z,57.00
2023-02-02T08:02:11.576Z,57.40
2023-02-02T08:05:09.671Z,57.80
2023-02-02T08:08:07.560Z,58.00
2023-02-02T08:11:05.645Z,57.90
2023-02-02T08:14:04.740Z,58.70
2023-02-02T08:17:10.568Z,57.50
2023-02-02T08:20:08.802Z,56.50
2023-02-02T08:23:09.769Z,57.80
2023-02-02T08:26:14.762Z,57.20
2023-02-02T08:29:17.648Z,58.90
2023-02-02T08:32:15.457Z,58.10
2023-02-02T08:35:13.733Z,59.00
2023-02-02T08:38:11.627Z,59.70
2023-02-02T08:41:11.887Z,59.70
2023-02-02T08:44:12.655Z,59.70
2023-02-02T08:47:10.529Z,60.20
2023-02-02T08:50:09.295Z,59.20
2023-02-02T08:53:07.170Z,57.90
2023-02-02T08:56:10.197Z,57.50
2023-02-02T08:59:08.237Z,58.20
2023-02-02T09:02:06.083Z,58.00
2023-02-02T09:05:03.997Z,58.30
2023-02-02T09:08:01.974Z,57.90
2023-02-02T09:11:05.992Z,57.50
2023-02-02T09:14:06.929Z,57.90
2023-02-02T09:17:04.958Z,57.70
2023-02-02T09:20:10.224Z,57.80
2023-02-02T09:23:08.011Z,58.40
2023-02-02T09:26:17.722Z,58.40
2023-02-02T09:29:18.661Z,58.60
2023-02-02T09:32:16.332Z,59.80
2023-02-02T09:35:14.282Z,59.80
2023-02-02T09:38:11.922Z,59.90
2023-02-02T09:41:43.376Z,61.10
2023-02-02T09:44:58.038Z,61.90
2023-02-02T09:48:02.610Z,61.10
2023-02-02T09:51:09.370Z,60.90
2023-02-02T09:54:20.183Z,61.40
2023-02-02T09:57:26.147Z,60.50
2023-02-02T10:00:33.008Z,60.80
2023-02-02T10:03:54.688Z,60.60
2023-02-02T10:06:57.008Z,60.80
2023-02-02T10:10:00.579Z,61.50
2023-02-02T10:13:07.338Z,61.80
2023-02-02T10:16:17.603Z,61.60
2023-02-02T10:19:16.512Z,61.90
2023-02-02T10:22:20.181Z,62.20
2023-02-02T10:25:18.502Z,62.80
2023-02-02T10:28:36.283Z,63.00
2023-02-02T10:31:55.595Z,62.90
2023-02-02T10:35:22.300Z,63.20
2023-02-02T10:38:40.731Z,63.70
2023-02-02T10:41:53.430Z,64.20
2023-02-02T10:45:01.575Z,64.70
2023-02-02T10:47:59.625Z,64.80
2023-02-02T10:51:01.338Z,65.40
2023-02-02T10:54:05.473Z,64.70
2023-02-02T10:57:06.012Z,66.20
2023-02-02T11:00:22.925Z,65.80
2023-02-02T11:03:25.663Z,65.90
2023-02-02T11:06:38.735Z,66.00
2023-02-02T11:09:41.594Z,67.00
2023-02-02T11:12:46.738Z,67.60
2023-02-02T11:15:44.616Z,68.10
2023-02-02T11:18:44.454Z,68.30
2023-02-02T11:21:45.720Z,68.40
2023-02-02T11:24:49.050Z,69.00
2023-02-02T11:27:48.041Z,69.40
2023-02-02T11:30:51.041Z,69.90
2023-02-02T11:33:51.684Z,70.00
2023-02-02T11:37:20.717Z,69.10
2023-02-02T11:40:37.217Z,68.60
2023-02-02T11:43:42.381Z,68.80
2023-02-02T11:46:40.321Z,70.00
2023-02-02T11:49:44.457Z,70.50
2023-02-02T11:52:46.015Z,71.10
2023-02-02T11:55:44.617Z,71.40
2023-02-02T11:58:49.782Z,71.90
2023-02-02T12:01:47.600Z,72.30
2023-02-02T12:04:45.533Z,72.40
2023-02-02T12:07:45.053Z,72.40
2023-02-02T12:10:56.196Z,72.40
2023-02-02T12:14:12.583Z,72.10
2023-02-02T12:17:42.839Z,71.90
2023-02-02T12:20:58.109Z,71.40
2023-02-02T12:24:19.108Z,70.90
2023-02-02T12:27:43.406Z,70.40
2023-02-02T12:31:16.901Z,69.50
2023-02-02T12:34:38.121Z,70.80
2023-02-02T12:38:11.028Z,70.50
2023-02-02T12:41:27.361Z,71.80
2023-02-02T12:44:51.357Z,71.20
2023-02-02T12:48:04.579Z,70.40
2023-02-02T12:51:21.764Z,67.70
2023-02-02T12:54:53.145Z,64.80
2023-02-02T12:58:17.839Z,65.30
2023-02-02T13:01:43.627Z,65.10
2023-02-02T13:05:05.518Z,64.90
2023-02-02T13:08:11.075Z,64.00
2023-02-02T13:11:30.237Z,64.40
2023-02-02T13:14:34.545Z,65.50
2023-02-02T13:17:42.547Z,65.50
2023-02-02T13:20:46.970Z,64.60
2023-02-02T13:23:50.983Z,63.60
2023-02-02T13:26:50.189Z,62.60
2023-02-02T13:30:01.909Z,61.40
2023-02-02T13:33:02.933Z,62.00
2023-02-02T13:36:09.301Z,62.20
2023-02-02T13:39:28.970Z,63.90
2023-02-02T13:42:42.544Z,63.50
2023-02-02T13:46:05.643Z,62.80
2023-02-02T13:49:11.333Z,62.60
2023-02-02T13:52:36.675Z,62.50
2023-02-02T13:55:55.885Z,62.30
2023-02-02T13:59:18.777Z,64.30
2023-02-02T14:02:36.837Z,64.30
2023-02-02T14:05:38.510Z,65.10
2023-02-02T14:08:37.599Z,64.50
2023-02-02T14:11:39.268Z,63.90
2023-02-02T14:14:43.503Z,63.10
2023-02-02T14:17:56.443Z,63.30
2023-02-02T14:20:53.971Z,64.30
2023-02-02T14:23:54.374Z,64.70
2023-02-02T14:26:55.827Z,63.80
2023-02-02T14:30:01.156Z,64.20
2023-02-02T14:33:27.225Z,64.60
2023-02-02T14:36:26.335Z,65.20
2023-02-02T14:39:30.744Z,65.20
2023-02-02T14:43:13.789Z,65.70
2023-02-02T14:46:36.836Z,65.30
2023-02-02T14:49:36.146Z,65.50
2023-02-02T14:52:34.219Z,65.70
2023-02-02T14:55:32.101Z,66.00
2023-02-02T14:58:34.667Z,66.10
2023-02-02T15:01:36.471Z,66.60
2023-02-02T15:04:34.345Z,66.10
2023-02-02T15:07:52.303Z,63.20
2023-02-02T15:11:22.974Z,61.40
2023-02-02T15:14:23.059Z,61.50
2023-02-02T15:17:46.187Z,61.00
2023-02-02T15:20:50.009Z,58.30
2023-02-02T15:23:48.189Z,58.40
2023-02-02T15:26:47.756Z,56.60
2023-02-02T15:29:50.019Z,56.00
2023-02-02T15:32:49.436Z,56.40
2023-02-02T15:35:49.393Z,56.70
2023-02-02T15:38:50.718Z,55.90
2023-02-02T15:42:11.018Z,55.80
2023-02-02T15:45:31.207Z,56.00
2023-02-02T15:48:35.352Z,55.40
2023-02-02T15:51:33.171Z,54.70
2023-02-02T15:54:35.411Z,53.70
2023-02-02T15:57:35.706Z,54.50
2023-02-02T16:04:17.393Z,54.70
2023-02-02T16:07:21.842Z,55.30
2023-02-02T16:10:22.300Z,54.80
2023-02-02T16:13:27.095Z,55.50
2023-02-02T16:16:32.291Z,55.60
2023-02-02T16:19:30.827Z,55.60
2023-02-02T16:22:31.024Z,55.90
2023-02-02T16:25:33.399Z,55.90
2023-02-02T16:28:31.963Z,55.80
2023-02-02T16:31:31.879Z,56.30
2023-02-02T16:34:47.029Z,56.50
2023-02-02T16:37:45.077Z,57.80
2023-02-02T16:40:43.038Z,58.50
2023-02-02T16:43:43.318Z,59.70
2023-02-02T16:46:50.494Z,60.20
2023-02-02T16:49:48.431Z,60.60
2023-02-02T16:52:52.811Z,61.40
2023-02-02T16:55:51.725Z,62.00
2023-02-02T16:58:49.940Z,61.90
2023-02-02T17:01:52.773Z,62.40
2023-02-02T17:04:57.197Z,62.50
2023-02-02T17:08:01.234Z,62.30
2023-02-02T17:11:11.039Z,62.00
2023-02-02T17:14:28.073Z,61.80
2023-02-02T17:17:26.347Z,61.50
2023-02-02T17:20:24.696Z,61.10
2023-02-02T17:23:22.770Z,61.70
2023-02-02T17:26:21.110Z,62.10
2023-02-02T17:29:20.702Z,64.00
2023-02-02T17:32:18.468Z,64.30
2023-02-02T17:35:18.535Z,64.30
2023-02-02T17:38:18.042Z,66.10
2023-02-02T17:41:15.802Z,67.90
2023-02-02T17:44:13.766Z,68.00
2023-02-02T17:47:14.035Z,69.80
2023-02-02T17:50:12.875Z,71.40
2023-02-02T17:53:16.274Z,72.70
2023-02-02T17:56:13.805Z,73.20
2023-02-02T17:59:12.692Z,74.10
2023-02-02T18:02:15.927Z,75.00
2023-02-02T18:05:14.551Z,75.30
2023-02-02T18:08:13.410Z,75.40
2023-02-02T18:11:14.033Z,74.70
2023-02-02T18:14:11.900Z,75.90
2023-02-02T18:17:09.667Z,77.10
2023-02-02T18:20:08.589Z,76.40
2023-02-02T18:23:06.949Z,73.60
2023-02-02T18:26:15.464Z,72.80
2023-02-02T18:29:15.957Z,72.10
2023-02-02T18:32:14.908Z,71.30
2023-02-02T18:35:13.137Z,69.30
2023-02-02T18:38:13.603Z,70.70
2023-02-02T18:41:14.193Z,71.60
2023-02-02T18:44:12.025Z,71.40
2023-02-02T18:47:09.758Z,72.40
2023-02-02T18:50:08.058Z,73.60
2023-02-02T18:53:07.164Z,74.70
2023-02-02T18:56:07.102Z,72.10
2023-02-02T18:59:06.706Z,72.60
2023-02-02T19:02:04.607Z,74.70
2023-02-02T19:05:17.576Z,74.00
2023-02-02T19:08:15.106Z,74.50
2023-02-02T19:11:17.821Z,74.50
2023-02-02T19:14:18.839Z,74.50
2023-02-02T19:17:22.794Z,75.10
2023-02-02T19:20:26.223Z,74.60
2023-02-02T19:23:29.090Z,74.40
2023-02-02T19:26:28.565Z,74.30
2023-02-02T19:29:30.890Z,74.00
2023-02-02T19:32:33.496Z,73.80
2023-02-02T19:35:32.455Z,73.40
2023-02-02T19:38:30.613Z,72.90
2023-02-02T19:41:29.000Z,72.00
2023-02-02T19:44:31.507Z,72.00
2023-02-02T19:47:32.622Z,72.30
2023-02-02T19:50:41.434Z,73.00
2023-02-02T19:53:39.419Z,72.80
2023-02-02T19:56:40.908Z,72.20
2023-02-02T19:59:38.691Z,71.60
2023-02-02T20:02:54.843Z,71.40
2023-02-02T20:05:54.147Z,71.20
2023-02-02T20:08:52.582Z,70.80
2023-02-02T20:11:54.522Z,70.20
2023-02-02T20:14:52.548Z,69.50
2023-02-02T20:17:50.727Z,70.60
2023-02-02T20:20:55.100Z,70.80
2023-02-02T20:23:53.181Z,70.60
2023-02-02T20:26:53.152Z,70.70
2023-02-02T20:29:53.502Z,70.40
2023-02-02T20:32:56.357Z,70.30
2023-02-02T20:36:35.614Z,70.40
2023-02-02T20:39:36.931Z,70.20
2023-02-02T20:42:34.974Z,70.40
2023-02-02T20:45:33.103Z,70.20
2023-02-02T20:48:30.790Z,69.90
2023-02-02T20:51:28.576Z,69.90
2023-02-02T20:54:27.017Z,70.00
2023-02-02T20:57:27.867Z,70.20
2023-02-02T21:00:27.878Z,70.10
2023-02-02T21:03:25.887Z,69.90
2023-02-02T21:06:24.004Z,69.30
2023-02-02T21:09:22.048Z,70.00
2023-02-02T21:12:22.731Z,70.60
2023-02-02T21:15:20.673Z,70.80
2023-02-02T21:18:18.417Z,71.00
2023-02-02T21:21:17.482Z,72.50
2023-02-02T21:24:15.199Z,71.60
2023-02-02T21:27:13.414Z,71.60
2023-02-02T21:30:12.458Z,71.60
2023-02-02T21:33:10.330Z,71.90
2023-02-02T21:36:30.305Z,71.30
2023-02-02T21:39:32.866Z,71.20
2023-02-02T21:42:35.909Z,71.30
2023-02-02T21:45:36.116Z,71.30
2023-02-02T21:48:36.841Z,70.80
2023-02-02T21:51:38.098Z,70.70
2023-02-02T21:54:38.089Z,71.60
2023-02-02T21:57:37.812Z,71.50
2023-02-02T22:00:35.607Z,71.90
2023-02-02T22:03:37.535Z,72.20
2023-02-02T22:06:37.297Z,72.60
2023-02-02T22:09:45.180Z,72.50
2023-02-02T22:12:42.913Z,71.80
2023-02-02T22:15:40.744Z,71.50
2023-02-02T22:18:38.457Z,72.00
2023-02-02T22:21:36.220Z,72.00
2023-02-02T22:24:33.861Z,72.30
2023-02-02T22:27:53.877Z,72.20
2023-02-02T22:30:53.009Z,72.00
2023-02-02T22:33:50.945Z,71.30
2023-02-02T22:36:48.793Z,70.70
2023-02-02T22:39:53.917Z,70.60
2023-02-02T22:42:52.958Z,71.00
2023-02-02T22:45:50.763Z,71.20
2023-02-02T22:48:48.408Z,71.40
2023-02-02T22:51:46.160Z,70.90
2023-02-02T22:54:43.816Z,70.90
2023-02-02T22:57:41.812Z,71.20
2023-02-02T23:00:40.040Z,71.40
2023-02-02T23:03:38.062Z,71.60
2023-02-02T23:06:35.782Z,71.40
2023-02-02T23:09:33.790Z,71.40
2023-02-02T23:12:31.803Z,71.50
2023-02-02T23:15:31.415Z,71.40
2023-02-02T23:18:29.062Z,71.70
2023-02-02T23:21:27.158Z,71.60
2023-02-02T23:24:24.844Z,71.50
2023-02-02T23:27:22.779Z,71.10
2023-02-02T23:30:22.556Z,71.00
2023-02-02T23:33:20.407Z,71.20
2023-02-02T23:36:18.044Z,71.30
2023-02-02T23:39:15.810Z,71.30
2023-02-02T23:42:13.552Z,71.20
2023-02-02T23:45:11.690Z,71.50
2023-02-02T23:48:10.372Z,71.90
2023-02-02T23:51:08.228Z,72.30
2023-02-02T23:54:06.330Z,72.20
2023-02-02T23:57:04.439Z,72.50
